sensor_id;sensor_type;location;lat;lon;timestamp;P1;durP1;ratioP1;P2;durP2;ratioP2
38529;SDS011;24301;54.332;48.386;2023-03-25T00:01:05;7.30;;;4.73;;
38529;SDS011;24301;54.332;48.386;2023-03-25T00:03:34;7.07;;;4.70;;
38529;SDS011;24301;54.332;48.386;2023-03-25T00:06:06;5.40;;;4.43;;
38529;SDS011;24301;54.332;48.386;2023-03-25T00:08:33;5.20;;;4.53;;
38529;SDS011;24301;54.332;48.386;2023-03-25T00:10:59;6.20;;;5.13;;
38529;SDS011;24301;54.332;48.386;2023-03-25T00:13:27;5.40;;;3.90;;
38529;SDS011;24301;54.332;48.386;2023-03-25T00:15:56;5.20;;;4.70;;
38529;SDS011;24301;54.332;48.386;2023-03-25T00:18:23;7.43;;;5.10;;
38529;SDS011;24301;54.332;48.386;2023-03-25T00:20:51;5.63;;;4.23;;
38529;SDS011;24301;54.332;48.386;2023-03-25T00:23:18;6.10;;;4.77;;
38529;SDS011;24301;54.332;48.386;2023-03-25T00:25:45;6.33;;;4.77;;
38529;SDS011;24301;54.332;48.386;2023-03-25T00:28:12;7.83;;;5.10;;
38529;SDS011;24301;54.332;48.386;2023-03-25T00:30:39;8.23;;;4.93;;
38529;SDS011;24301;54.332;48.386;2023-03-25T00:33:05;8.20;;;5.43;;
38529;SDS011;24301;54.332;48.386;2023-03-25T00:35:38;6.87;;;5.27;;
38529;SDS011;24301;54.332;48.386;2023-03-25T00:38:12;8.13;;;5.40;;
38529;SDS011;24301;54.332;48.386;2023-03-25T00:40:38;7.73;;;5.80;;
38529;SDS011;24301;54.332;48.386;2023-03-25T00:43:04;9.07;;;6.13;;
38529;SDS011;24301;54.332;48.386;2023-03-25T00:45:31;8.67;;;6.67;;
38529;SDS011;24301;54.332;48.386;2023-03-25T00:47:58;8.20;;;6.93;;
38529;SDS011;24301;54.332;48.386;2023-03-25T00:50:34;9.40;;;6.90;;
38529;SDS011;24301;54.332;48.386;2023-03-25T00:52:59;11.10;;;7.53;;
38529;SDS011;24301;54.332;48.386;2023-03-25T00:55:35;9.90;;;7.93;;
38529;SDS011;24301;54.332;48.386;2023-03-25T00:58:32;13.17;;;8.70;;
38529;SDS011;24301;54.332;48.386;2023-03-25T01:04:27;11.17;;;8.10;;
38529;SDS011;24301;54.332;48.386;2023-03-25T01:07:03;12.07;;;7.63;;
38529;SDS011;24301;54.332;48.386;2023-03-25T01:12:37;10.80;;;7.90;;
38529;SDS011;24301;54.332;48.386;2023-03-25T01:15:06;11.43;;;7.70;;
38529;SDS011;24301;54.332;48.386;2023-03-25T01:20:25;12.20;;;7.70;;
38529;SDS011;24301;54.332;48.386;2023-03-25T01:22:52;12.63;;;8.90;;
38529;SDS011;24301;54.332;48.386;2023-03-25T01:25:18;11.33;;;8.47;;
38529;SDS011;24301;54.332;48.386;2023-03-25T01:27:43;11.03;;;8.23;;
38529;SDS011;24301;54.332;48.386;2023-03-25T01:30:11;12.37;;;8.70;;
38529;SDS011;24301;54.332;48.386;2023-03-25T01:32:37;12.53;;;9.23;;
38529;SDS011;24301;54.332;48.386;2023-03-25T01:35:03;13.67;;;9.33;;
38529;SDS011;24301;54.332;48.386;2023-03-25T01:37:30;12.80;;;9.43;;
38529;SDS011;24301;54.332;48.386;2023-03-25T01:39:58;13.57;;;9.70;;
38529;SDS011;24301;54.332;48.386;2023-03-25T01:42:24;13.57;;;9.60;;
38529;SDS011;24301;54.332;48.386;2023-03-25T01:47:16;12.73;;;9.80;;
38529;SDS011;24301;54.332;48.386;2023-03-25T01:49:42;14.83;;;10.70;;
38529;SDS011;24301;54.332;48.386;2023-03-25T01:52:14;13.33;;;10.27;;
38529;SDS011;24301;54.332;48.386;2023-03-25T01:54:43;16.20;;;10.30;;
38529;SDS011;24301;54.332;48.386;2023-03-25T01:57:11;13.57;;;10.90;;
38529;SDS011;24301;54.332;48.386;2023-03-25T01:59:42;15.77;;;11.60;;
38529;SDS011;24301;54.332;48.386;2023-03-25T02:02:08;18.00;;;11.43;;
38529;SDS011;24301;54.332;48.386;2023-03-25T02:07:08;15.97;;;10.23;;
38529;SDS011;24301;54.332;48.386;2023-03-25T02:09:35;15.37;;;11.23;;
38529;SDS011;24301;54.332;48.386;2023-03-25T02:12:05;16.90;;;11.83;;
38529;SDS011;24301;54.332;48.386;2023-03-25T02:14:32;15.07;;;10.83;;
38529;SDS011;24301;54.332;48.386;2023-03-25T02:17:33;15.93;;;12.20;;
38529;SDS011;24301;54.332;48.386;2023-03-25T02:20:29;16.63;;;10.90;;
38529;SDS011;24301;54.332;48.386;2023-03-25T02:31:22;18.73;;;13.13;;
38529;SDS011;24301;54.332;48.386;2023-03-25T02:37:17;16.23;;;12.27;;
38529;SDS011;24301;54.332;48.386;2023-03-25T02:39:58;16.77;;;12.67;;
38529;SDS011;24301;54.332;48.386;2023-03-25T02:47:46;14.67;;;10.87;;
38529;SDS011;24301;54.332;48.386;2023-03-25T02:50:16;15.57;;;11.13;;
38529;SDS011;24301;54.332;48.386;2023-03-25T02:52:49;16.42;;;12.07;;
38529;SDS011;24301;54.332;48.386;2023-03-25T02:55:19;16.37;;;11.97;;
38529;SDS011;24301;54.332;48.386;2023-03-25T02:57:48;17.37;;;11.53;;
38529;SDS011;24301;54.332;48.386;2023-03-25T03:00:19;16.53;;;11.70;;
38529;SDS011;24301;54.332;48.386;2023-03-25T03:02:55;14.50;;;10.67;;
38529;SDS011;24301;54.332;48.386;2023-03-25T03:14:10;15.10;;;10.65;;
38529;SDS011;24301;54.332;48.386;2023-03-25T03:19:32;14.10;;;10.80;;
38529;SDS011;24301;54.332;48.386;2023-03-25T03:22:31;13.77;;;10.20;;
38529;SDS011;24301;54.332;48.386;2023-03-25T03:27:33;13.00;;;9.47;;
38529;SDS011;24301;54.332;48.386;2023-03-25T03:30:12;13.57;;;8.60;;
38529;SDS011;24301;54.332;48.386;2023-03-25T03:32:48;13.67;;;9.73;;
38529;SDS011;24301;54.332;48.386;2023-03-25T03:35:28;14.10;;;9.90;;
38529;SDS011;24301;54.332;48.386;2023-03-25T03:38:00;12.10;;;9.53;;
38529;SDS011;24301;54.332;48.386;2023-03-25T03:40:28;12.70;;;8.83;;
38529;SDS011;24301;54.332;48.386;2023-03-25T03:42:57;12.23;;;9.23;;
38529;SDS011;24301;54.332;48.386;2023-03-25T03:45:41;11.53;;;8.70;;
38529;SDS011;24301;54.332;48.386;2023-03-25T03:48:11;12.25;;;8.95;;
38529;SDS011;24301;54.332;48.386;2023-03-25T03:50:49;10.27;;;8.03;;
38529;SDS011;24301;54.332;48.386;2023-03-25T03:53:31;10.57;;;8.30;;
38529;SDS011;24301;54.332;48.386;2023-03-25T03:56:04;13.83;;;9.63;;
38529;SDS011;24301;54.332;48.386;2023-03-25T03:58:34;11.97;;;9.00;;
38529;SDS011;24301;54.332;48.386;2023-03-25T04:03:49;13.67;;;8.77;;
38529;SDS011;24301;54.332;48.386;2023-03-25T04:11:39;12.17;;;9.07;;
38529;SDS011;24301;54.332;48.386;2023-03-25T04:21:04;10.87;;;7.83;;
38529;SDS011;24301;54.332;48.386;2023-03-25T04:27:02;13.63;;;9.93;;
38529;SDS011;24301;54.332;48.386;2023-03-25T04:32:50;13.57;;;9.60;;
38529;SDS011;24301;54.332;48.386;2023-03-25T04:35:34;14.43;;;10.90;;
38529;SDS011;24301;54.332;48.386;2023-03-25T04:38:00;13.97;;;10.00;;
38529;SDS011;24301;54.332;48.386;2023-03-25T04:40:28;14.87;;;10.87;;
38529;SDS011;24301;54.332;48.386;2023-03-25T04:42:59;16.17;;;11.77;;
38529;SDS011;24301;54.332;48.386;2023-03-25T04:45:28;13.27;;;10.10;;
38529;SDS011;24301;54.332;48.386;2023-03-25T04:47:54;13.13;;;10.17;;
38529;SDS011;24301;54.332;48.386;2023-03-25T04:50:22;18.80;;;10.97;;
38529;SDS011;24301;54.332;48.386;2023-03-25T04:52:51;15.87;;;10.77;;
38529;SDS011;24301;54.332;48.386;2023-03-25T04:55:19;14.07;;;10.23;;
38529;SDS011;24301;54.332;48.386;2023-03-25T04:57:46;14.67;;;11.07;;
38529;SDS011;24301;54.332;48.386;2023-03-25T05:00:14;16.87;;;11.23;;
38529;SDS011;24301;54.332;48.386;2023-03-25T05:02:46;16.77;;;10.90;;
38529;SDS011;24301;54.332;48.386;2023-03-25T05:05:14;14.33;;;10.00;;
38529;SDS011;24301;54.332;48.386;2023-03-25T05:07:45;12.97;;;9.77;;
38529;SDS011;24301;54.332;48.386;2023-03-25T05:10:18;14.50;;;10.13;;
38529;SDS011;24301;54.332;48.386;2023-03-25T05:12:46;13.20;;;9.57;;
38529;SDS011;24301;54.332;48.386;2023-03-25T05:15:13;16.10;;;11.40;;
38529;SDS011;24301;54.332;48.386;2023-03-25T05:17:41;13.47;;;10.27;;
38529;SDS011;24301;54.332;48.386;2023-03-25T05:20:08;14.03;;;10.33;;
38529;SDS011;24301;54.332;48.386;2023-03-25T05:22:36;17.37;;;10.33;;
38529;SDS011;24301;54.332;48.386;2023-03-25T05:25:04;13.70;;;8.87;;
38529;SDS011;24301;54.332;48.386;2023-03-25T05:27:31;13.43;;;9.43;;
38529;SDS011;24301;54.332;48.386;2023-03-25T05:29:58;15.03;;;9.77;;
38529;SDS011;24301;54.332;48.386;2023-03-25T05:32:26;13.07;;;9.37;;
38529;SDS011;24301;54.332;48.386;2023-03-25T05:34:56;13.30;;;8.83;;
38529;SDS011;24301;54.332;48.386;2023-03-25T05:37:33;13.67;;;9.37;;
38529;SDS011;24301;54.332;48.386;2023-03-25T05:40:00;13.83;;;9.23;;
38529;SDS011;24301;54.332;48.386;2023-03-25T05:42:28;14.23;;;9.67;;
38529;SDS011;24301;54.332;48.386;2023-03-25T05:44:56;13.97;;;9.57;;
38529;SDS011;24301;54.332;48.386;2023-03-25T05:47:26;12.37;;;8.40;;
38529;SDS011;24301;54.332;48.386;2023-03-25T05:49:54;11.70;;;8.40;;
38529;SDS011;24301;54.332;48.386;2023-03-25T05:52:20;10.63;;;8.50;;
38529;SDS011;24301;54.332;48.386;2023-03-25T05:54:48;11.83;;;8.90;;
38529;SDS011;24301;54.332;48.386;2023-03-25T05:57:16;11.53;;;9.57;;
38529;SDS011;24301;54.332;48.386;2023-03-25T05:59:42;11.90;;;9.07;;
38529;SDS011;24301;54.332;48.386;2023-03-25T06:02:12;12.37;;;9.07;;
38529;SDS011;24301;54.332;48.386;2023-03-25T06:04:39;14.37;;;11.10;;
38529;SDS011;24301;54.332;48.386;2023-03-25T06:07:07;19.97;;;13.07;;
38529;SDS011;24301;54.332;48.386;2023-03-25T06:09:55;15.47;;;11.37;;
38529;SDS011;24301;54.332;48.386;2023-03-25T06:12:21;12.33;;;9.50;;
38529;SDS011;24301;54.332;48.386;2023-03-25T06:14:48;12.13;;;8.93;;
38529;SDS011;24301;54.332;48.386;2023-03-25T06:17:18;14.93;;;10.77;;
38529;SDS011;24301;54.332;48.386;2023-03-25T06:19:48;11.77;;;9.33;;
38529;SDS011;24301;54.332;48.386;2023-03-25T06:22:16;14.83;;;10.70;;
38529;SDS011;24301;54.332;48.386;2023-03-25T06:24:44;10.80;;;8.70;;
38529;SDS011;24301;54.332;48.386;2023-03-25T06:27:16;11.97;;;9.53;;
38529;SDS011;24301;54.332;48.386;2023-03-25T06:29:43;12.00;;;8.53;;
38529;SDS011;24301;54.332;48.386;2023-03-25T06:32:12;12.73;;;8.93;;
38529;SDS011;24301;54.332;48.386;2023-03-25T06:34:39;14.27;;;8.93;;
38529;SDS011;24301;54.332;48.386;2023-03-25T06:37:07;10.80;;;7.97;;
38529;SDS011;24301;54.332;48.386;2023-03-25T06:39:37;10.70;;;8.43;;
38529;SDS011;24301;54.332;48.386;2023-03-25T06:42:17;11.40;;;7.78;;
38529;SDS011;24301;54.332;48.386;2023-03-25T06:48:43;12.35;;;8.55;;
38529;SDS011;24301;54.332;48.386;2023-03-25T06:51:10;12.05;;;7.97;;
38529;SDS011;24301;54.332;48.386;2023-03-25T06:53:36;12.85;;;7.75;;
38529;SDS011;24301;54.332;48.386;2023-03-25T06:56:02;8.68;;;6.90;;
38529;SDS011;24301;54.332;48.386;2023-03-25T06:58:28;7.93;;;6.63;;
38529;SDS011;24301;54.332;48.386;2023-03-25T07:00:59;7.30;;;5.90;;
38529;SDS011;24301;54.332;48.386;2023-03-25T07:03:31;9.60;;;7.35;;
38529;SDS011;24301;54.332;48.386;2023-03-25T07:05:57;8.43;;;6.95;;
38529;SDS011;24301;54.332;48.386;2023-03-25T07:08:23;7.47;;;6.68;;
38529;SDS011;24301;54.332;48.386;2023-03-25T07:10:50;8.63;;;6.47;;
38529;SDS011;24301;54.332;48.386;2023-03-25T07:13:16;8.35;;;6.60;;
38529;SDS011;24301;54.332;48.386;2023-03-25T07:15:42;8.40;;;6.70;;
38529;SDS011;24301;54.332;48.386;2023-03-25T07:18:08;8.65;;;7.45;;
38529;SDS011;24301;54.332;48.386;2023-03-25T07:20:34;9.60;;;7.00;;
38529;SDS011;24301;54.332;48.386;2023-03-25T07:23:01;9.15;;;7.13;;
38529;SDS011;24301;54.332;48.386;2023-03-25T07:25:27;7.47;;;5.35;;
38529;SDS011;24301;54.332;48.386;2023-03-25T07:27:53;7.32;;;5.65;;
38529;SDS011;24301;54.332;48.386;2023-03-25T07:30:19;7.40;;;5.97;;
38529;SDS011;24301;54.332;48.386;2023-03-25T07:32:48;7.43;;;5.53;;
38529;SDS011;24301;54.332;48.386;2023-03-25T07:35:14;8.68;;;6.43;;
38529;SDS011;24301;54.332;48.386;2023-03-25T07:37:40;7.18;;;5.93;;
38529;SDS011;24301;54.332;48.386;2023-03-25T07:40:06;6.85;;;5.05;;
38529;SDS011;24301;54.332;48.386;2023-03-25T07:42:34;7.13;;;4.68;;
38529;SDS011;24301;54.332;48.386;2023-03-25T07:45:36;7.18;;;4.32;;
38529;SDS011;24301;54.332;48.386;2023-03-25T07:48:02;5.25;;;4.45;;
38529;SDS011;24301;54.332;48.386;2023-03-25T07:50:28;6.03;;;4.72;;
38529;SDS011;24301;54.332;48.386;2023-03-25T07:52:55;5.90;;;4.53;;
38529;SDS011;24301;54.332;48.386;2023-03-25T07:55:21;7.57;;;5.25;;
38529;SDS011;24301;54.332;48.386;2023-03-25T07:57:48;4.70;;;4.20;;
38529;SDS011;24301;54.332;48.386;2023-03-25T08:00:25;4.65;;;3.80;;
38529;SDS011;24301;54.332;48.386;2023-03-25T08:02:53;5.85;;;3.92;;
38529;SDS011;24301;54.332;48.386;2023-03-25T08:09:37;5.68;;;3.88;;
38529;SDS011;24301;54.332;48.386;2023-03-25T08:15:38;4.57;;;3.90;;
38529;SDS011;24301;54.332;48.386;2023-03-25T08:18:05;5.55;;;4.47;;
38529;SDS011;24301;54.332;48.386;2023-03-25T08:20:35;8.68;;;6.65;;
38529;SDS011;24301;54.332;48.386;2023-03-25T08:23:01;16.50;;;9.05;;
38529;SDS011;24301;54.332;48.386;2023-03-25T08:25:28;7.15;;;5.93;;
38529;SDS011;24301;54.332;48.386;2023-03-25T08:27:55;6.70;;;4.75;;
38529;SDS011;24301;54.332;48.386;2023-03-25T08:30:21;5.68;;;4.57;;
38529;SDS011;24301;54.332;48.386;2023-03-25T08:32:47;6.63;;;5.03;;
38529;SDS011;24301;54.332;48.386;2023-03-25T08:35:18;11.80;;;5.95;;
38529;SDS011;24301;54.332;48.386;2023-03-25T08:37:46;9.93;;;6.63;;
38529;SDS011;24301;54.332;48.386;2023-03-25T08:40:13;8.77;;;5.82;;
38529;SDS011;24301;54.332;48.386;2023-03-25T08:42:41;9.38;;;5.43;;
38529;SDS011;24301;54.332;48.386;2023-03-25T08:45:08;7.90;;;6.45;;
38529;SDS011;24301;54.332;48.386;2023-03-25T08:47:34;12.35;;;7.75;;
38529;SDS011;24301;54.332;48.386;2023-03-25T08:50:01;8.90;;;5.18;;
38529;SDS011;24301;54.332;48.386;2023-03-25T08:52:27;9.23;;;6.63;;
38529;SDS011;24301;54.332;48.386;2023-03-25T08:54:53;10.77;;;5.53;;
38529;SDS011;24301;54.332;48.386;2023-03-25T08:57:20;9.75;;;4.95;;
38529;SDS011;24301;54.332;48.386;2023-03-25T08:59:46;10.38;;;5.60;;
38529;SDS011;24301;54.332;48.386;2023-03-25T09:02:18;7.95;;;6.05;;
38529;SDS011;24301;54.332;48.386;2023-03-25T09:04:53;9.20;;;6.28;;
38529;SDS011;24301;54.332;48.386;2023-03-25T09:07:21;9.15;;;4.75;;
38529;SDS011;24301;54.332;48.386;2023-03-25T09:09:47;7.22;;;4.70;;
38529;SDS011;24301;54.332;48.386;2023-03-25T09:12:14;6.57;;;4.05;;
38529;SDS011;24301;54.332;48.386;2023-03-25T09:14:42;7.60;;;4.05;;
38529;SDS011;24301;54.332;48.386;2023-03-25T09:17:09;10.90;;;4.50;;
38529;SDS011;24301;54.332;48.386;2023-03-25T09:19:35;6.15;;;3.85;;
38529;SDS011;24301;54.332;48.386;2023-03-25T09:22:02;7.38;;;4.25;;
38529;SDS011;24301;54.332;48.386;2023-03-25T09:24:31;8.02;;;4.55;;
38529;SDS011;24301;54.332;48.386;2023-03-25T09:27:01;5.40;;;4.00;;
38529;SDS011;24301;54.332;48.386;2023-03-25T09:29:28;10.20;;;4.78;;
38529;SDS011;24301;54.332;48.386;2023-03-25T09:31:54;7.38;;;3.83;;
38529;SDS011;24301;54.332;48.386;2023-03-25T09:34:22;12.05;;;5.45;;
38529;SDS011;24301;54.332;48.386;2023-03-25T09:36:49;7.35;;;3.95;;
38529;SDS011;24301;54.332;48.386;2023-03-25T09:39:15;7.43;;;3.95;;
38529;SDS011;24301;54.332;48.386;2023-03-25T09:44:37;7.35;;;4.40;;
38529;SDS011;24301;54.332;48.386;2023-03-25T09:47:19;9.82;;;4.90;;
38529;SDS011;24301;54.332;48.386;2023-03-25T09:49:49;8.30;;;5.70;;
38529;SDS011;24301;54.332;48.386;2023-03-25T09:52:22;9.02;;;5.70;;
38529;SDS011;24301;54.332;48.386;2023-03-25T09:54:54;5.55;;;3.92;;
38529;SDS011;24301;54.332;48.386;2023-03-25T09:57:27;7.18;;;3.92;;
38529;SDS011;24301;54.332;48.386;2023-03-25T09:59:56;7.22;;;4.35;;
38529;SDS011;24301;54.332;48.386;2023-03-25T10:02:32;6.97;;;5.03;;
38529;SDS011;24301;54.332;48.386;2023-03-25T10:11:02;8.63;;;5.45;;
38529;SDS011;24301;54.332;48.386;2023-03-25T10:16:55;5.90;;;4.30;;
38529;SDS011;24301;54.332;48.386;2023-03-25T10:27:33;5.13;;;3.15;;
38529;SDS011;24301;54.332;48.386;2023-03-25T10:30:20;4.60;;;2.75;;
38529;SDS011;24301;54.332;48.386;2023-03-25T10:32:55;5.00;;;4.05;;
38529;SDS011;24301;54.332;48.386;2023-03-25T10:35:30;14.77;;;5.35;;
38529;SDS011;24301;54.332;48.386;2023-03-25T10:38:01;5.85;;;3.97;;
38529;SDS011;24301;54.332;48.386;2023-03-25T10:40:38;6.90;;;4.35;;
38529;SDS011;24301;54.332;48.386;2023-03-25T10:43:22;7.88;;;3.70;;
38529;SDS011;24301;54.332;48.386;2023-03-25T10:45:56;6.57;;;3.42;;
38529;SDS011;24301;54.332;48.386;2023-03-25T10:48:44;7.80;;;3.17;;
38529;SDS011;24301;54.332;48.386;2023-03-25T10:53:43;6.40;;;3.55;;
38529;SDS011;24301;54.332;48.386;2023-03-25T10:56:13;6.03;;;3.35;;
38529;SDS011;24301;54.332;48.386;2023-03-25T10:59:01;9.68;;;4.28;;
38529;SDS011;24301;54.332;48.386;2023-03-25T11:01:36;4.68;;;3.22;;
38529;SDS011;24301;54.332;48.386;2023-03-25T11:04:06;4.80;;;2.83;;
38529;SDS011;24301;54.332;48.386;2023-03-25T11:06:43;7.70;;;3.10;;
38529;SDS011;24301;54.332;48.386;2023-03-25T11:09:24;5.40;;;2.97;;
38529;SDS011;24301;54.332;48.386;2023-03-25T11:11:55;6.47;;;2.63;;
38529;SDS011;24301;54.332;48.386;2023-03-25T11:14:26;4.50;;;2.60;;
38529;SDS011;24301;54.332;48.386;2023-03-25T11:17:01;5.05;;;3.47;;
38529;SDS011;24301;54.332;48.386;2023-03-25T11:22:21;7.47;;;3.28;;
38529;SDS011;24301;54.332;48.386;2023-03-25T11:24:51;6.38;;;2.33;;
38529;SDS011;24301;54.332;48.386;2023-03-25T11:27:23;3.95;;;2.20;;
38529;SDS011;24301;54.332;48.386;2023-03-25T11:29:56;6.43;;;2.22;;
38529;SDS011;24301;54.332;48.386;2023-03-25T11:32:34;5.63;;;2.35;;
38529;SDS011;24301;54.332;48.386;2023-03-25T11:35:06;3.35;;;2.05;;
38529;SDS011;24301;54.332;48.386;2023-03-25T11:37:45;5.20;;;2.47;;
38529;SDS011;24301;54.332;48.386;2023-03-25T11:40:20;3.67;;;2.50;;
38529;SDS011;24301;54.332;48.386;2023-03-25T11:42:56;3.75;;;2.28;;
38529;SDS011;24301;54.332;48.386;2023-03-25T11:45:35;6.70;;;2.33;;
38529;SDS011;24301;54.332;48.386;2023-03-25T11:48:10;4.35;;;2.30;;
38529;SDS011;24301;54.332;48.386;2023-03-25T11:50:45;2.83;;;2.15;;
38529;SDS011;24301;54.332;48.386;2023-03-25T11:53:20;5.55;;;2.30;;
38529;SDS011;24301;54.332;48.386;2023-03-25T11:55:49;4.72;;;2.65;;
38529;SDS011;24301;54.332;48.386;2023-03-25T11:58:20;4.57;;;2.10;;
38529;SDS011;24301;54.332;48.386;2023-03-25T12:00:59;6.50;;;2.40;;
38529;SDS011;24301;54.332;48.386;2023-03-25T12:03:27;4.13;;;2.28;;
38529;SDS011;24301;54.332;48.386;2023-03-25T12:05:59;3.05;;;2.10;;
38529;SDS011;24301;54.332;48.386;2023-03-25T12:08:27;4.45;;;2.60;;
38529;SDS011;24301;54.332;48.386;2023-03-25T12:11:04;5.30;;;3.60;;
38529;SDS011;24301;54.332;48.386;2023-03-25T12:18:58;6.00;;;3.70;;
38529;SDS011;24301;54.332;48.386;2023-03-25T12:24:49;6.32;;;3.55;;
38529;SDS011;24301;54.332;48.386;2023-03-25T12:36:29;5.57;;;2.60;;
38529;SDS011;24301;54.332;48.386;2023-03-25T12:48:01;4.40;;;2.45;;
38529;SDS011;24301;54.332;48.386;2023-03-25T12:50:34;9.82;;;3.50;;
38529;SDS011;24301;54.332;48.386;2023-03-25T12:53:20;6.60;;;3.15;;
38529;SDS011;24301;54.332;48.386;2023-03-25T12:59:12;5.88;;;3.38;;
38529;SDS011;24301;54.332;48.386;2023-03-25T13:04:15;7.43;;;4.10;;
38529;SDS011;24301;54.332;48.386;2023-03-25T13:07:08;6.35;;;2.88;;
38529;SDS011;24301;54.332;48.386;2023-03-25T13:12:27;7.13;;;3.97;;
38529;SDS011;24301;54.332;48.386;2023-03-25T13:15:03;10.50;;;4.45;;
38529;SDS011;24301;54.332;48.386;2023-03-25T13:17:40;12.38;;;4.88;;
38529;SDS011;24301;54.332;48.386;2023-03-25T13:20:12;11.20;;;4.32;;
38529;SDS011;24301;54.332;48.386;2023-03-25T13:22:48;9.52;;;4.68;;
38529;SDS011;24301;54.332;48.386;2023-03-25T13:28:03;6.43;;;4.75;;
38529;SDS011;24301;54.332;48.386;2023-03-25T13:30:38;8.25;;;5.07;;
38529;SDS011;24301;54.332;48.386;2023-03-25T13:33:09;9.20;;;5.20;;
38529;SDS011;24301;54.332;48.386;2023-03-25T13:38:32;11.10;;;5.88;;
38529;SDS011;24301;54.332;48.386;2023-03-25T13:43:39;8.68;;;3.20;;
38529;SDS011;24301;54.332;48.386;2023-03-25T13:46:39;10.45;;;3.28;;
38529;SDS011;24301;54.332;48.386;2023-03-25T13:51:40;10.27;;;4.10;;
38529;SDS011;24301;54.332;48.386;2023-03-25T13:56:53;8.75;;;4.30;;
38529;SDS011;24301;54.332;48.386;2023-03-25T14:05:07;7.38;;;3.95;;
38529;SDS011;24301;54.332;48.386;2023-03-25T14:14:23;7.82;;;3.67;;
38529;SDS011;24301;54.332;48.386;2023-03-25T14:17:00;6.65;;;3.33;;
38529;SDS011;24301;54.332;48.386;2023-03-25T14:22:07;5.40;;;2.88;;
38529;SDS011;24301;54.332;48.386;2023-03-25T14:24:40;6.28;;;3.00;;
38529;SDS011;24301;54.332;48.386;2023-03-25T14:27:11;9.93;;;2.92;;
38529;SDS011;24301;54.332;48.386;2023-03-25T14:29:44;5.22;;;2.65;;
38529;SDS011;24301;54.332;48.386;2023-03-25T14:34:43;6.72;;;3.28;;
38529;SDS011;24301;54.332;48.386;2023-03-25T14:39:48;6.22;;;2.70;;
38529;SDS011;24301;54.332;48.386;2023-03-25T14:45:31;6.03;;;3.40;;
38529;SDS011;24301;54.332;48.386;2023-03-25T14:48:04;8.45;;;3.38;;
38529;SDS011;24301;54.332;48.386;2023-03-25T14:50:34;4.35;;;2.58;;
38529;SDS011;24301;54.332;48.386;2023-03-25T14:53:05;3.67;;;2.60;;
38529;SDS011;24301;54.332;48.386;2023-03-25T14:55:41;4.15;;;2.55;;
38529;SDS011;24301;54.332;48.386;2023-03-25T14:58:16;6.25;;;3.10;;
38529;SDS011;24301;54.332;48.386;2023-03-25T15:00:54;4.40;;;2.47;;
38529;SDS011;24301;54.332;48.386;2023-03-25T15:03:28;4.40;;;2.90;;
38529;SDS011;24301;54.332;48.386;2023-03-25T15:05:58;5.38;;;3.08;;
38529;SDS011;24301;54.332;48.386;2023-03-25T15:08:27;5.22;;;2.92;;
38529;SDS011;24301;54.332;48.386;2023-03-25T15:11:02;3.40;;;2.67;;
38529;SDS011;24301;54.332;48.386;2023-03-25T15:13:47;5.20;;;2.72;;
38529;SDS011;24301;54.332;48.386;2023-03-25T15:19:00;6.72;;;3.20;;
38529;SDS011;24301;54.332;48.386;2023-03-25T15:21:32;6.88;;;3.70;;
38529;SDS011;24301;54.332;48.386;2023-03-25T15:26:54;4.80;;;2.97;;
38529;SDS011;24301;54.332;48.386;2023-03-25T15:54:56;8.60;;;3.50;;
38529;SDS011;24301;54.332;48.386;2023-03-25T15:57:53;2.63;;;2.08;;
38529;SDS011;24301;54.332;48.386;2023-03-25T16:00:58;4.50;;;3.13;;
38529;SDS011;24301;54.332;48.386;2023-03-25T16:03:24;4.85;;;3.20;;
38529;SDS011;24301;54.332;48.386;2023-03-25T16:05:57;9.52;;;3.15;;
38529;SDS011;24301;54.332;48.386;2023-03-25T16:10:56;5.85;;;3.17;;
38529;SDS011;24301;54.332;48.386;2023-03-25T16:13:39;4.85;;;2.88;;
38529;SDS011;24301;54.332;48.386;2023-03-25T16:16:06;6.07;;;2.67;;
38529;SDS011;24301;54.332;48.386;2023-03-25T16:18:37;4.45;;;3.03;;
38529;SDS011;24301;54.332;48.386;2023-03-25T16:21:10;4.47;;;2.72;;
38529;SDS011;24301;54.332;48.386;2023-03-25T16:23:37;6.32;;;3.30;;
38529;SDS011;24301;54.332;48.386;2023-03-25T16:26:04;9.35;;;3.05;;
38529;SDS011;24301;54.332;48.386;2023-03-25T16:28:38;6.90;;;3.20;;
38529;SDS011;24301;54.332;48.386;2023-03-25T16:31:09;5.30;;;3.25;;
38529;SDS011;24301;54.332;48.386;2023-03-25T16:33:59;4.68;;;3.17;;
38529;SDS011;24301;54.332;48.386;2023-03-25T16:36:25;6.10;;;3.70;;
38529;SDS011;24301;54.332;48.386;2023-03-25T16:38:54;8.35;;;3.97;;
38529;SDS011;24301;54.332;48.386;2023-03-25T16:41:25;6.70;;;4.20;;
38529;SDS011;24301;54.332;48.386;2023-03-25T16:43:57;8.48;;;5.15;;
38529;SDS011;24301;54.332;48.386;2023-03-25T16:46:32;9.27;;;5.13;;
38529;SDS011;24301;54.332;48.386;2023-03-25T16:49:03;12.02;;;4.60;;
38529;SDS011;24301;54.332;48.386;2023-03-25T16:51:36;5.55;;;3.97;;
38529;SDS011;24301;54.332;48.386;2023-03-25T16:54:07;8.07;;;4.72;;
38529;SDS011;24301;54.332;48.386;2023-03-25T16:57:15;4.65;;;3.28;;
38529;SDS011;24301;54.332;48.386;2023-03-25T16:59:46;5.80;;;3.85;;
38529;SDS011;24301;54.332;48.386;2023-03-25T17:04:52;5.35;;;2.83;;
38529;SDS011;24301;54.332;48.386;2023-03-25T17:07:23;5.75;;;3.38;;
38529;SDS011;24301;54.332;48.386;2023-03-25T17:09:53;5.55;;;2.97;;
38529;SDS011;24301;54.332;48.386;2023-03-25T17:12:22;5.03;;;3.10;;
38529;SDS011;24301;54.332;48.386;2023-03-25T17:15:03;5.45;;;3.40;;
38529;SDS011;24301;54.332;48.386;2023-03-25T17:20:14;7.95;;;3.55;;
38529;SDS011;24301;54.332;48.386;2023-03-25T17:22:54;4.57;;;3.15;;
38529;SDS011;24301;54.332;48.386;2023-03-25T17:25:49;5.45;;;3.70;;
38529;SDS011;24301;54.332;48.386;2023-03-25T17:28:31;8.18;;;3.47;;
38529;SDS011;24301;54.332;48.386;2023-03-25T17:34:18;6.07;;;3.40;;
38529;SDS011;24301;54.332;48.386;2023-03-25T17:36:55;5.80;;;3.05;;
38529;SDS011;24301;54.332;48.386;2023-03-25T17:39:26;3.65;;;3.17;;
38529;SDS011;24301;54.332;48.386;2023-03-25T17:42:00;5.63;;;3.95;;
38529;SDS011;24301;54.332;48.386;2023-03-25T17:44:36;6.03;;;3.63;;
38529;SDS011;24301;54.332;48.386;2023-03-25T17:47:04;5.78;;;3.55;;
38529;SDS011;24301;54.332;48.386;2023-03-25T17:49:33;4.40;;;3.35;;
38529;SDS011;24301;54.332;48.386;2023-03-25T17:51:59;7.00;;;4.15;;
38529;SDS011;24301;54.332;48.386;2023-03-25T17:54:25;6.80;;;4.57;;
38529;SDS011;24301;54.332;48.386;2023-03-25T17:56:54;4.78;;;4.30;;
38529;SDS011;24301;54.332;48.386;2023-03-25T17:59:23;7.47;;;4.32;;
38529;SDS011;24301;54.332;48.386;2023-03-25T18:01:55;8.10;;;4.82;;
38529;SDS011;24301;54.332;48.386;2023-03-25T18:04:22;6.05;;;4.10;;
38529;SDS011;24301;54.332;48.386;2023-03-25T18:06:49;6.43;;;4.03;;
38529;SDS011;24301;54.332;48.386;2023-03-25T18:09:19;4.85;;;3.70;;
38529;SDS011;24301;54.332;48.386;2023-03-25T18:11:49;5.22;;;3.58;;
38529;SDS011;24301;54.332;48.386;2023-03-25T18:14:18;7.47;;;3.88;;
38529;SDS011;24301;54.332;48.386;2023-03-25T18:16:45;4.25;;;3.45;;
38529;SDS011;24301;54.332;48.386;2023-03-25T18:19:18;4.60;;;3.55;;
38529;SDS011;24301;54.332;48.386;2023-03-25T18:21:47;7.60;;;3.95;;
38529;SDS011;24301;54.332;48.386;2023-03-25T18:24:13;6.60;;;4.20;;
38529;SDS011;24301;54.332;48.386;2023-03-25T18:26:43;8.23;;;4.47;;
38529;SDS011;24301;54.332;48.386;2023-03-25T18:29:16;7.25;;;4.43;;
38529;SDS011;24301;54.332;48.386;2023-03-25T18:31:49;5.78;;;3.75;;